OIFS

Shahrekord Airport

Airport
ICAO code
OIFS
IATA Code
CQD
Summary
ICAO Region
MID
ICAO Territory
Location

Shahrekord, Chaharmahal and Bakhtiari Province

Serving
Shahrekord
Elevation
6723 ft
Coordinates
32° 17' 41" N , 50° 50' 16" E
KCC
Metar
Observation
OIFS 041400Z 22010KT 9999 FEW040 07/M08 Q1020
Station
Shahre-Kord
Date/Time
2022-12-04 14:00:00
Wind direction
220°
Wind speed
10 kts
Lowest cloud amount
few clouds
Temperature
7°C
Dew point
-8°C
Humidity
33%
QNH
1020 hPa
Weather condition
n/a

Airport serving Shahr-e Kord, Iran.

Climatology

Cold Semi-arid climate (Köppen climate classification BSk).

Runways

Designator Length Width Surface Rops
14/32 3298 45 ASP No/No

Airport map

Aerial View

SKYbrary Partners:

Safety knowledge contributed by: